createdAt,value
2023-09-23T00:01:26.886Z,99.90
2023-09-23T00:03:54.122Z,99.90
2023-09-23T00:06:23.803Z,99.90
2023-09-23T00:08:50.703Z,99.90
2023-09-23T00:11:17.846Z,99.90
2023-09-23T00:13:44.925Z,99.90
2023-09-23T00:16:18.243Z,99.90
2023-09-23T00:18:45.271Z,99.90
2023-09-23T00:21:13.802Z,99.90
2023-09-23T00:23:41.098Z,99.90
2023-09-23T00:26:08.152Z,99.90
2023-09-23T00:28:35.328Z,99.90
2023-09-23T00:31:12.768Z,99.90
2023-09-23T00:33:40.229Z,99.90
2023-09-23T00:36:09.695Z,99.90
2023-09-23T00:38:37.314Z,99.90
2023-09-23T00:41:05.078Z,99.90
2023-09-23T00:43:33.526Z,99.90
2023-09-23T00:46:01.360Z,99.90
2023-09-23T00:48:32.038Z,99.90
2023-09-23T00:50:58.645Z,99.90
2023-09-23T00:53:26.803Z,99.90
2023-09-23T00:55:54.234Z,99.90
2023-09-23T00:58:22.901Z,99.90
2023-09-23T01:00:50.542Z,99.90
2023-09-23T01:03:18.857Z,99.90
2023-09-23T01:05:46.594Z,99.90
2023-09-23T01:08:19.339Z,99.90
2023-09-23T01:10:47.409Z,99.90
2023-09-23T01:13:14.209Z,99.90
2023-09-23T01:15:44.265Z,99.90
2023-09-23T01:18:18.558Z,99.90
2023-09-23T01:20:52.493Z,99.90
2023-09-23T01:23:19.129Z,99.90
2023-09-23T01:25:45.862Z,99.90
2023-09-23T01:28:12.744Z,99.90
2023-09-23T01:30:41.590Z,99.90
2023-09-23T01:33:08.974Z,99.90
2023-09-23T01:35:36.312Z,99.90
2023-09-23T01:38:07.657Z,99.90
2023-09-23T01:40:36.353Z,99.90
2023-09-23T01:43:03.272Z,99.90
2023-09-23T01:45:31.373Z,99.90
2023-09-23T01:47:58.293Z,99.90
2023-09-23T01:50:26.029Z,99.90
2023-09-23T01:52:52.981Z,99.90
2023-09-23T01:55:20.035Z,99.90
2023-09-23T01:57:49.196Z,99.90
2023-09-23T02:00:19.618Z,99.90
2023-09-23T02:02:46.837Z,99.90
2023-09-23T02:05:15.058Z,99.90
2023-09-23T02:07:42.297Z,99.90
2023-09-23T02:10:15.926Z,99.90
2023-09-23T02:12:43.745Z,99.90
2023-09-23T02:15:11.991Z,99.90
2023-09-23T02:17:38.783Z,99.90
2023-09-23T02:20:12.203Z,99.90
2023-09-23T02:22:38.910Z,99.90
2023-09-23T02:25:06.069Z,99.90
2023-09-23T02:27:32.658Z,99.90
2023-09-23T02:29:59.296Z,99.90
2023-09-23T02:32:25.951Z,99.90
2023-09-23T02:34:52.703Z,99.90
2023-09-23T02:37:19.334Z,99.90
2023-09-23T02:39:46.325Z,99.90
2023-09-23T02:42:13.356Z,99.90
2023-09-23T02:44:40.599Z,99.90
2023-09-23T02:47:08.315Z,99.90
2023-09-23T02:49:35.774Z,99.90
2023-09-23T02:52:02.359Z,99.90
2023-09-23T02:54:29.153Z,99.90
2023-09-23T02:56:56.065Z,99.90
2023-09-23T02:59:27.246Z,99.90
2023-09-23T03:01:55.015Z,99.90
2023-09-23T03:04:24.916Z,99.90
2023-09-23T03:06:57.076Z,99.90
2023-09-23T03:09:26.260Z,99.90
2023-09-23T03:11:59.423Z,99.90
2023-09-23T03:14:44.233Z,99.90
2023-09-23T03:17:13.840Z,99.90
2023-09-23T03:19:40.453Z,99.90
2023-09-23T03:22:08.841Z,99.90
2023-09-23T03:24:35.945Z,99.90
2023-09-23T03:27:03.159Z,99.90
2023-09-23T03:29:32.093Z,99.90
2023-09-23T03:31:59.965Z,99.90
2023-09-23T03:34:27.706Z,99.90
2023-09-23T03:36:54.934Z,99.90
2023-09-23T03:39:23.005Z,99.90
2023-09-23T03:41:49.766Z,99.90
2023-09-23T03:44:17.122Z,99.90
2023-09-23T03:46:48.029Z,99.90
2023-09-23T03:49:14.665Z,99.90
2023-09-23T03:51:41.313Z,99.90
2023-09-23T03:54:08.245Z,99.90
2023-09-23T03:56:35.530Z,99.90
2023-09-23T03:59:08.034Z,99.90
2023-09-23T04:01:35.119Z,99.90
2023-09-23T04:04:03.713Z,99.90
2023-09-23T04:06:34.287Z,99.90
2023-09-23T04:09:00.883Z,99.90
2023-09-23T04:11:27.780Z,99.90
2023-09-23T04:13:55.057Z,99.90
2023-09-23T04:16:21.990Z,99.90
2023-09-23T04:18:49.043Z,99.90
2023-09-23T04:21:15.939Z,99.90
2023-09-23T04:23:42.503Z,99.90
2023-09-23T04:26:09.598Z,99.90
2023-09-23T04:28:36.444Z,99.90
2023-09-23T04:31:04.117Z,99.90
2023-09-23T04:33:30.945Z,99.90
2023-09-23T04:35:58.022Z,99.90
2023-09-23T04:38:25.945Z,99.90
2023-09-23T04:40:53.313Z,99.90
2023-09-23T04:43:21.265Z,99.90
2023-09-23T04:45:49.634Z,99.90
2023-09-23T04:48:19.197Z,99.90
2023-09-23T04:50:47.297Z,99.90
2023-09-23T04:53:14.069Z,99.90
2023-09-23T04:55:41.013Z,99.90
2023-09-23T04:58:07.672Z,99.90
2023-09-23T05:00:37.699Z,99.90
2023-09-23T05:03:04.453Z,99.90
2023-09-23T05:05:31.262Z,99.90
2023-09-23T05:07:58.062Z,99.90
2023-09-23T05:10:24.937Z,99.90
2023-09-23T05:12:55.257Z,99.90
2023-09-23T05:15:22.923Z,99.90
2023-09-23T05:17:50.406Z,99.90
2023-09-23T05:20:18.034Z,99.90
2023-09-23T05:22:44.675Z,99.90
2023-09-23T05:25:12.710Z,99.90
2023-09-23T05:27:40.028Z,99.90
2023-09-23T05:30:08.741Z,99.90
2023-09-23T05:32:39.053Z,99.90
2023-09-23T05:35:12.504Z,99.90
2023-09-23T05:37:45.016Z,99.90
2023-09-23T05:40:24.605Z,99.90
2023-09-23T05:42:52.160Z,99.90
2023-09-23T05:45:19.472Z,99.90
2023-09-23T05:47:46.641Z,99.90
2023-09-23T05:50:13.670Z,99.90
2023-09-23T05:52:40.512Z,99.90
2023-09-23T05:55:08.149Z,99.90
2023-09-23T05:57:39.932Z,99.90
2023-09-23T06:00:09.243Z,99.90
2023-09-23T06:02:36.298Z,99.90
2023-09-23T06:05:03.616Z,99.90
2023-09-23T06:07:32.404Z,99.90
2023-09-23T06:10:00.730Z,99.90
2023-09-23T06:12:30.525Z,99.90
2023-09-23T06:15:01.309Z,99.90
2023-09-23T06:17:29.839Z,99.90
2023-09-23T06:19:57.760Z,99.90
2023-09-23T06:22:24.760Z,99.90
2023-09-23T06:24:52.101Z,99.90
2023-09-23T06:27:19.417Z,99.90
2023-09-23T06:29:46.484Z,99.90
2023-09-23T06:32:13.951Z,99.90
2023-09-23T06:34:40.599Z,99.90
2023-09-23T06:37:07.208Z,99.90
2023-09-23T06:39:33.821Z,99.90
2023-09-23T06:42:00.544Z,99.90
2023-09-23T06:44:27.246Z,99.90
2023-09-23T06:46:53.973Z,99.90
2023-09-23T06:49:20.778Z,99.90
2023-09-23T06:51:47.326Z,99.90
2023-09-23T06:54:14.008Z,99.90
2023-09-23T06:56:40.617Z,99.90
2023-09-23T06:59:07.236Z,99.90
2023-09-23T07:01:35.749Z,99.90
2023-09-23T07:04:03.396Z,99.90
2023-09-23T07:06:30.125Z,99.90
2023-09-23T07:08:56.852Z,99.90
2023-09-23T07:11:24.722Z,99.90
2023-09-23T07:13:51.747Z,99.90
2023-09-23T07:16:18.486Z,99.90
2023-09-23T07:18:46.048Z,99.90
2023-09-23T07:21:13.076Z,99.90
2023-09-23T07:23:39.822Z,99.90
2023-09-23T07:26:07.083Z,99.90
2023-09-23T07:28:33.954Z,99.90
2023-09-23T07:31:01.564Z,99.90
2023-09-23T07:33:28.432Z,99.90
2023-09-23T07:35:55.041Z,99.90
2023-09-23T07:38:21.802Z,99.90
2023-09-23T07:40:49.908Z,99.90
2023-09-23T07:43:16.622Z,99.90
2023-09-23T07:45:43.293Z,99.90
2023-09-23T07:48:10.211Z,99.90
2023-09-23T07:50:36.867Z,99.90
2023-09-23T07:53:03.753Z,99.90
2023-09-23T07:55:31.289Z,99.90
2023-09-23T07:57:58.058Z,99.90
2023-09-23T08:00:27.223Z,99.90
2023-09-23T08:02:55.643Z,99.90
2023-09-23T08:05:25.384Z,99.90
2023-09-23T08:07:52.566Z,99.90
2023-09-23T08:10:19.461Z,99.90
2023-09-23T08:12:46.164Z,99.90
2023-09-23T08:15:13.272Z,99.90
2023-09-23T08:17:40.848Z,99.90
2023-09-23T08:20:24.933Z,99.90
2023-09-23T08:22:51.818Z,99.90
2023-09-23T08:25:21.549Z,99.90
2023-09-23T08:27:48.420Z,99.90
2023-09-23T08:30:17.548Z,99.90
2023-09-23T08:32:44.528Z,99.90
2023-09-23T08:35:11.613Z,99.90
2023-09-23T08:37:38.505Z,99.90
2023-09-23T08:40:11.823Z,99.90
2023-09-23T08:42:39.762Z,99.90
2023-09-23T08:45:10.409Z,99.90
2023-09-23T08:47:38.575Z,99.90
2023-09-23T08:50:09.480Z,99.90
2023-09-23T08:52:36.962Z,99.90
2023-09-23T08:55:05.492Z,99.90
2023-09-23T08:57:32.368Z,99.90
2023-09-23T08:59:59.065Z,99.90
2023-09-23T09:02:26.936Z,99.90
2023-09-23T09:04:56.192Z,99.90
2023-09-23T09:07:39.089Z,99.90
2023-09-23T09:10:06.905Z,99.90
2023-09-23T09:12:34.509Z,99.90
2023-09-23T09:15:01.553Z,99.90
2023-09-23T09:17:28.300Z,99.90
2023-09-23T09:19:54.957Z,99.90
2023-09-23T09:22:21.611Z,99.90
2023-09-23T09:24:48.447Z,99.90
2023-09-23T09:27:15.479Z,99.90
2023-09-23T09:29:42.808Z,99.90
2023-09-23T09:32:14.555Z,99.90
2023-09-23T09:34:48.347Z,99.90
2023-09-23T09:37:15.926Z,99.90
2023-09-23T09:39:54.772Z,99.90
2023-09-23T09:42:27.977Z,99.90
2023-09-23T09:44:56.519Z,99.90
2023-09-23T09:47:24.119Z,99.90
2023-09-23T09:49:55.705Z,99.90
2023-09-23T09:52:23.837Z,99.90
2023-09-23T09:55:01.893Z,99.90
2023-09-23T09:57:30.046Z,99.90
2023-09-23T10:00:20.827Z,99.90
2023-09-23T10:02:49.157Z,99.90
2023-09-23T10:05:18.559Z,99.90
2023-09-23T10:07:57.520Z,99.90
2023-09-23T10:10:35.562Z,99.90
2023-09-23T10:13:19.573Z,99.90
2023-09-23T10:15:46.576Z,99.90
2023-09-23T10:18:18.324Z,99.90
2023-09-23T10:20:53.251Z,99.90
2023-09-23T10:23:21.369Z,99.90
2023-09-23T10:25:53.566Z,99.90
2023-09-23T10:28:25.276Z,99.90
2023-09-23T10:30:58.774Z,99.90
2023-09-23T10:33:27.371Z,99.90
2023-09-23T10:35:55.052Z,99.90
2023-09-23T10:38:27.050Z,99.90
2023-09-23T10:40:54.881Z,99.90
2023-09-23T10:43:25.052Z,99.90
2023-09-23T10:45:59.147Z,99.90
2023-09-23T10:48:27.071Z,99.90
2023-09-23T10:50:53.853Z,99.90
2023-09-23T10:53:22.728Z,99.90
2023-09-23T10:55:50.676Z,99.90
2023-09-23T10:58:17.536Z,99.90
2023-09-23T11:00:44.823Z,99.90
2023-09-23T11:03:13.528Z,99.90
2023-09-23T11:05:41.120Z,99.90
2023-09-23T11:08:11.235Z,99.90
2023-09-23T11:10:46.070Z,99.90
2023-09-23T11:13:14.143Z,99.90
2023-09-23T11:15:44.262Z,99.90
2023-09-23T11:18:13.110Z,99.90
2023-09-23T11:20:42.297Z,99.90
2023-09-23T11:23:11.072Z,99.90
2023-09-23T11:25:47.694Z,99.90
2023-09-23T11:28:22.240Z,99.90
2023-09-23T11:30:50.254Z,99.90
2023-09-23T11:33:17.340Z,99.90
2023-09-23T11:35:45.135Z,99.90
2023-09-23T11:38:12.661Z,99.90
2023-09-23T11:40:39.617Z,99.90
2023-09-23T11:43:06.748Z,99.90
2023-09-23T11:45:34.099Z,99.90
2023-09-23T11:48:01.354Z,99.50
2023-09-23T11:50:28.307Z,98.30
2023-09-23T11:52:55.219Z,98.70
2023-09-23T11:55:23.929Z,96.70
2023-09-23T11:57:55.150Z,96.70
2023-09-23T12:00:21.846Z,96.50
2023-09-23T12:02:51.495Z,97.50
2023-09-23T12:05:18.369Z,96.70
2023-09-23T12:07:45.617Z,97.30
2023-09-23T12:10:16.669Z,97.80
2023-09-23T12:12:46.646Z,97.30
2023-09-23T12:15:13.273Z,96.10
2023-09-23T12:17:40.010Z,95.40
2023-09-23T12:20:13.068Z,96.10
2023-09-23T12:22:40.172Z,95.30
2023-09-23T12:25:07.749Z,93.60
2023-09-23T12:27:34.958Z,92.20
2023-09-23T12:30:02.013Z,92.80
2023-09-23T12:32:29.667Z,94.10
2023-09-23T12:34:56.379Z,93.00
2023-09-23T12:37:23.179Z,91.70
2023-09-23T12:39:51.400Z,92.60
2023-09-23T12:42:18.064Z,93.70
2023-09-23T12:44:44.873Z,93.30
2023-09-23T12:47:11.495Z,92.00
2023-09-23T12:49:38.198Z,91.90
2023-09-23T12:52:06.140Z,92.90
2023-09-23T12:54:33.097Z,92.80
2023-09-23T12:56:59.749Z,93.20
2023-09-23T12:59:26.382Z,92.40
2023-09-23T13:01:53.080Z,92.70
2023-09-23T13:04:19.648Z,92.70
2023-09-23T13:06:46.531Z,92.90
2023-09-23T13:09:13.182Z,92.60
2023-09-23T13:11:40.064Z,92.70
2023-09-23T13:14:08.424Z,92.10
2023-09-23T13:16:35.172Z,91.90
2023-09-23T13:19:01.941Z,92.60
2023-09-23T13:21:28.655Z,92.60
2023-09-23T13:23:55.265Z,93.00
2023-09-23T13:26:22.039Z,92.90
2023-09-23T13:28:49.051Z,92.90
2023-09-23T13:31:16.119Z,93.30
2023-09-23T13:33:43.038Z,93.60
2023-09-23T13:36:10.217Z,94.00
2023-09-23T13:38:36.881Z,94.40
2023-09-23T13:41:05.437Z,94.20
2023-09-23T13:43:32.182Z,94.30
2023-09-23T13:45:59.143Z,94.00
2023-09-23T13:48:25.888Z,94.20
2023-09-23T13:50:52.720Z,93.60
2023-09-23T13:53:19.334Z,93.70
2023-09-23T13:55:46.180Z,94.20
2023-09-23T13:58:13.312Z,94.50
2023-09-23T14:00:39.941Z,94.70
2023-09-23T14:03:06.668Z,94.90
2023-09-23T14:05:33.474Z,94.90
2023-09-23T14:08:00.463Z,94.20
2023-09-23T14:10:28.030Z,94.40
2023-09-23T14:12:54.662Z,94.80
2023-09-23T14:15:21.290Z,95.10
2023-09-23T14:17:49.105Z,95.30
2023-09-23T14:20:16.317Z,95.70
2023-09-23T14:22:46.570Z,95.80
2023-09-23T14:25:14.701Z,96.40
2023-09-23T14:27:41.633Z,96.60
2023-09-23T14:30:09.432Z,96.60
2023-09-23T14:32:36.453Z,96.90
2023-09-23T14:35:04.093Z,97.10
2023-09-23T14:37:33.652Z,97.30
2023-09-23T14:40:01.450Z,97.30
2023-09-23T14:42:28.348Z,97.10
2023-09-23T14:44:55.010Z,96.70
2023-09-23T14:47:21.926Z,96.30
2023-09-23T14:49:48.670Z,96.10
2023-09-23T14:52:15.393Z,96.20
2023-09-23T14:54:42.758Z,96.40
2023-09-23T14:57:09.528Z,96.50
2023-09-23T14:59:36.723Z,96.70
2023-09-23T15:02:04.394Z,96.70
2023-09-23T15:04:31.950Z,96.70
2023-09-23T15:07:00.463Z,96.90
2023-09-23T15:09:28.047Z,96.80
2023-09-23T15:11:54.954Z,97.00
2023-09-23T15:14:21.673Z,97.00
2023-09-23T15:16:50.715Z,97.00
2023-09-23T15:19:20.584Z,96.40
2023-09-23T15:21:47.585Z,95.90
2023-09-23T15:24:17.978Z,94.80
2023-09-23T15:26:45.091Z,95.60
2023-09-23T15:29:11.943Z,95.50
2023-09-23T15:31:38.756Z,95.30
2023-09-23T15:34:05.786Z,95.60
2023-09-23T15:36:32.556Z,95.70
2023-09-23T15:38:59.282Z,96.00
2023-09-23T15:41:26.177Z,95.90
2023-09-23T15:43:53.231Z,96.10
2023-09-23T15:46:19.979Z,96.30
2023-09-23T15:48:46.907Z,96.40
2023-09-23T15:51:16.030Z,96.10
2023-09-23T15:53:42.915Z,96.30
2023-09-23T15:56:10.546Z,96.50
2023-09-23T15:58:38.844Z,96.70
2023-09-23T16:01:08.526Z,96.80
2023-09-23T16:03:36.134Z,97.00
2023-09-23T16:06:03.639Z,97.00
2023-09-23T16:08:30.515Z,97.30
2023-09-23T16:10:57.232Z,97.30
2023-09-23T16:13:23.927Z,97.50
2023-09-23T16:15:50.719Z,97.60
2023-09-23T16:18:20.012Z,97.70
2023-09-23T16:20:48.413Z,97.80
2023-09-23T16:23:15.100Z,98.10
2023-09-23T16:25:41.788Z,98.00
2023-09-23T16:28:08.442Z,98.20
2023-09-23T16:30:35.314Z,98.20
2023-09-23T16:33:02.295Z,98.30
2023-09-23T16:35:28.959Z,98.50
2023-09-23T16:37:55.612Z,98.60
2023-09-23T16:40:22.670Z,98.60
2023-09-23T16:42:49.340Z,98.70
2023-09-23T16:45:16.234Z,98.70
2023-09-23T16:47:43.005Z,98.90
2023-09-23T16:50:10.066Z,99.10
2023-09-23T16:52:36.844Z,99.20
2023-09-23T16:55:03.996Z,99.30
2023-09-23T16:57:30.701Z,99.50
2023-09-23T16:59:58.307Z,99.60
2023-09-23T17:02:25.091Z,99.60
2023-09-23T17:04:52.287Z,99.70
2023-09-23T17:07:18.895Z,99.80
2023-09-23T17:09:45.513Z,99.80
2023-09-23T17:12:13.593Z,99.90
2023-09-23T17:14:40.691Z,99.90
2023-09-23T17:17:07.638Z,99.90
2023-09-23T17:19:34.930Z,99.90
2023-09-23T17:22:01.658Z,99.90
2023-09-23T17:24:30.288Z,99.90
2023-09-23T17:26:57.027Z,99.90
2023-09-23T17:29:23.724Z,99.90
2023-09-23T17:31:50.496Z,99.90
2023-09-23T17:34:17.505Z,99.90
2023-09-23T17:36:44.227Z,99.90
2023-09-23T17:39:11.772Z,99.90
2023-09-23T17:41:39.033Z,99.90
2023-09-23T17:44:06.604Z,99.90
2023-09-23T17:46:33.462Z,99.90
2023-09-23T17:49:00.120Z,99.90
2023-09-23T17:51:26.815Z,99.90
2023-09-23T17:53:53.613Z,99.90
2023-09-23T17:56:22.252Z,99.90
2023-09-23T17:58:50.077Z,99.90
2023-09-23T18:01:16.807Z,99.90
2023-09-23T18:03:43.541Z,99.90
2023-09-23T18:06:10.279Z,99.90
2023-09-23T18:08:36.996Z,99.90
2023-09-23T18:11:03.826Z,99.90
2023-09-23T18:13:30.646Z,99.90
2023-09-23T18:15:57.299Z,99.90
2023-09-23T18:18:27.589Z,99.90
2023-09-23T18:20:54.512Z,99.90
2023-09-23T18:23:21.551Z,99.90
2023-09-23T18:25:48.557Z,99.90
2023-09-23T18:28:15.241Z,99.90
2023-09-23T18:30:41.962Z,99.90
2023-09-23T18:33:09.094Z,99.90
2023-09-23T18:35:35.974Z,99.90
2023-09-23T18:38:03.296Z,99.90
2023-09-23T18:40:30.760Z,99.90
2023-09-23T18:42:57.367Z,99.90
2023-09-23T18:45:24.468Z,99.90
2023-09-23T18:47:57.629Z,99.90
2023-09-23T18:50:34.614Z,99.90
2023-09-23T18:53:01.369Z,99.90
2023-09-23T18:55:28.360Z,99.90
2023-09-23T18:57:55.013Z,99.90
2023-09-23T19:00:21.666Z,99.90
2023-09-23T19:02:49.379Z,99.90
2023-09-23T19:05:16.336Z,99.90
2023-09-23T19:07:42.980Z,99.90
2023-09-23T19:10:11.828Z,99.90
2023-09-23T19:12:39.076Z,99.90
2023-09-23T19:15:07.187Z,99.90
2023-09-23T19:17:33.902Z,99.90
2023-09-23T19:20:00.727Z,99.90
2023-09-23T19:22:27.353Z,99.90
2023-09-23T19:24:54.567Z,99.90
2023-09-23T19:27:21.198Z,99.90
2023-09-23T19:29:49.799Z,99.90
2023-09-23T19:32:16.613Z,99.90
2023-09-23T19:34:43.299Z,99.90
2023-09-23T19:37:10.943Z,99.90
2023-09-23T19:39:37.899Z,99.90
2023-09-23T19:42:05.331Z,99.90
2023-09-23T19:44:32.970Z,99.90
2023-09-23T19:47:01.860Z,99.90
2023-09-23T19:49:29.132Z,99.90
2023-09-23T19:51:56.295Z,99.90
2023-09-23T19:54:26.426Z,99.90
2023-09-23T19:56:53.138Z,99.90
2023-09-23T19:59:21.021Z,99.90
2023-09-23T20:01:48.100Z,99.90
2023-09-23T20:04:15.031Z,99.90
2023-09-23T20:06:42.515Z,99.90
2023-09-23T20:09:10.004Z,99.90
2023-09-23T20:11:36.991Z,99.90
2023-09-23T20:14:03.796Z,99.90
2023-09-23T20:16:30.500Z,99.90
2023-09-23T20:18:57.734Z,99.90
2023-09-23T20:21:24.422Z,99.90
2023-09-23T20:23:52.496Z,99.90
2023-09-23T20:26:20.790Z,99.90
2023-09-23T20:28:47.796Z,99.90
2023-09-23T20:31:16.431Z,99.90
2023-09-23T20:33:43.863Z,99.90
2023-09-23T20:36:10.728Z,99.90
2023-09-23T20:38:40.073Z,99.90
2023-09-23T20:41:07.669Z,99.90
2023-09-23T20:43:36.949Z,99.90
2023-09-23T20:46:04.584Z,99.90
2023-09-23T20:48:31.724Z,99.90
2023-09-23T20:50:58.611Z,99.90
2023-09-23T20:53:25.486Z,99.90
2023-09-23T20:55:52.410Z,99.90
2023-09-23T20:58:19.384Z,99.90
2023-09-23T21:00:46.087Z,99.90
2023-09-23T21:03:15.714Z,99.90
2023-09-23T21:05:43.902Z,99.90
2023-09-23T21:08:11.335Z,99.90
2023-09-23T21:10:38.232Z,99.90
2023-09-23T21:13:05.107Z,99.90
2023-09-23T21:15:32.212Z,99.90
2023-09-23T21:18:01.299Z,99.90
2023-09-23T21:20:28.418Z,99.90
2023-09-23T21:22:55.427Z,99.90
2023-09-23T21:25:22.211Z,99.90
2023-09-23T21:27:49.174Z,99.90
2023-09-23T21:30:17.301Z,99.90
2023-09-23T21:32:44.371Z,99.90
2023-09-23T21:35:11.377Z,99.90
2023-09-23T21:37:38.147Z,99.90
2023-09-23T21:40:05.282Z,99.90
2023-09-23T21:42:31.953Z,99.90
2023-09-23T21:44:59.020Z,99.90
2023-09-23T21:47:26.072Z,99.90
2023-09-23T21:49:52.960Z,99.90
2023-09-23T21:52:19.580Z,99.90
2023-09-23T21:54:46.173Z,99.90
2023-09-23T21:57:12.845Z,99.90
2023-09-23T21:59:39.918Z,99.90
2023-09-23T22:02:07.974Z,99.90
2023-09-23T22:04:35.098Z,99.90
2023-09-23T22:07:02.373Z,99.90
2023-09-23T22:09:29.350Z,99.90
2023-09-23T22:11:56.104Z,99.90
2023-09-23T22:14:22.768Z,99.90
2023-09-23T22:16:49.422Z,99.90
2023-09-23T22:19:16.031Z,99.90
2023-09-23T22:21:44.198Z,99.90
2023-09-23T22:24:11.014Z,99.90
2023-09-23T22:26:38.542Z,99.90
2023-09-23T22:29:10.959Z,99.90
2023-09-23T22:31:39.404Z,99.90
2023-09-23T22:34:06.020Z,99.90
2023-09-23T22:36:33.691Z,99.90
2023-09-23T22:39:00.787Z,99.90
2023-09-23T22:41:29.448Z,99.90
2023-09-23T22:43:56.934Z,99.90
2023-09-23T22:46:25.047Z,99.90
2023-09-23T22:48:52.278Z,99.90
2023-09-23T22:51:20.731Z,99.90
2023-09-23T22:53:48.006Z,99.90
2023-09-23T22:56:14.994Z,99.90
2023-09-23T22:58:47.274Z,99.90
2023-09-23T23:01:15.251Z,99.90
2023-09-23T23:03:42.232Z,99.90
2023-09-23T23:06:09.199Z,99.90
2023-09-23T23:08:37.350Z,99.90
2023-09-23T23:11:10.369Z,99.90
2023-09-23T23:13:37.749Z,99.90
2023-09-23T23:16:09.256Z,99.90
2023-09-23T23:18:35.995Z,99.90
2023-09-23T23:21:04.520Z,99.90
2023-09-23T23:23:31.872Z,99.90
2023-09-23T23:26:00.263Z,99.90
2023-09-23T23:28:28.392Z,99.90
2023-09-23T23:30:55.443Z,99.90
2023-09-23T23:33:22.541Z,99.90
2023-09-23T23:35:49.267Z,99.90
2023-09-23T23:38:16.142Z,99.90
2023-09-23T23:40:43.160Z,99.90
2023-09-23T23:43:10.528Z,99.90
2023-09-23T23:45:37.345Z,99.90
2023-09-23T23:48:04.431Z,99.90
2023-09-23T23:50:31.606Z,99.90
2023-09-23T23:52:58.332Z,99.90
2023-09-23T23:55:26.641Z,99.90
2023-09-23T23:57:53.605Z,99.90
